createdAt,value
2018-05-31T00:00:03.899Z,360
2018-05-31T00:00:16.503Z,33
2018-05-31T00:00:29.026Z,30
2018-05-31T00:00:41.615Z,36
2018-05-31T00:00:54.208Z,36
2018-05-31T00:01:08.839Z,36
2018-05-31T00:01:21.357Z,36
2018-05-31T00:01:33.912Z,38
2018-05-31T00:01:46.424Z,61
2018-05-31T00:01:58.961Z,69
2018-05-31T00:02:13.531Z,92
2018-05-31T00:02:26.110Z,92
2018-05-31T00:02:38.879Z,96
2018-05-31T00:02:51.411Z,78
2018-05-31T00:03:03.979Z,88
2018-05-31T00:03:17.576Z,61
2018-05-31T00:03:30.962Z,62
2018-05-31T00:03:43.477Z,72
2018-05-31T00:03:56.018Z,101
2018-05-31T00:04:08.535Z,101
2018-05-31T00:04:21.085Z,101
2018-05-31T00:04:35.601Z,101
2018-05-31T00:04:48.125Z,101
2018-05-31T00:05:00.653Z,101
2018-05-31T00:05:13.208Z,101
2018-05-31T00:05:25.747Z,101
2018-05-31T00:05:40.124Z,99
2018-05-31T00:05:52.647Z,55
2018-05-31T00:06:05.162Z,56
2018-05-31T00:06:17.721Z,55
2018-05-31T00:06:30.227Z,65
2018-05-31T00:06:44.685Z,65
2018-05-31T00:06:57.215Z,65
2018-05-31T00:07:09.762Z,65
2018-05-31T00:07:22.290Z,140
2018-05-31T00:07:35.021Z,99
2018-05-31T00:07:49.600Z,78
2018-05-31T00:08:02.184Z,88
2018-05-31T00:08:14.821Z,59
2018-05-31T00:08:27.348Z,75
2018-05-31T00:08:39.902Z,82
2018-05-31T00:08:53.042Z,96
2018-05-31T00:09:06.898Z,85
2018-05-31T00:09:19.416Z,92
2018-05-31T00:09:31.956Z,105
2018-05-31T00:09:44.524Z,98
2018-05-31T00:09:57.062Z,97
2018-05-31T00:10:11.707Z,97
2018-05-31T00:10:24.294Z,97
2018-05-31T00:10:36.859Z,97
2018-05-31T00:10:49.389Z,112
2018-05-31T00:11:01.923Z,112
2018-05-31T00:11:16.303Z,92
2018-05-31T00:11:28.843Z,44
2018-05-31T00:11:41.431Z,85
2018-05-31T00:11:53.980Z,85
2018-05-31T00:12:06.568Z,85
2018-05-31T00:12:20.682Z,85
2018-05-31T00:12:33.231Z,79
2018-05-31T00:12:45.826Z,78
2018-05-31T00:12:58.338Z,78
2018-05-31T00:13:10.914Z,78
2018-05-31T00:13:24.412Z,25
2018-05-31T00:13:37.511Z,64
2018-05-31T00:13:50.045Z,89
2018-05-31T00:14:02.646Z,92
2018-05-31T00:14:15.199Z,103
2018-05-31T00:14:27.965Z,50
2018-05-31T00:14:42.371Z,39
2018-05-31T00:14:54.907Z,58
2018-05-31T00:15:07.450Z,53
2018-05-31T00:15:19.989Z,53
2018-05-31T00:15:32.549Z,84
2018-05-31T00:15:47.142Z,89
2018-05-31T00:15:59.693Z,89
2018-05-31T00:16:12.237Z,89
2018-05-31T00:16:24.764Z,46
2018-05-31T00:16:37.319Z,47
2018-05-31T00:16:51.718Z,57
2018-05-31T00:17:04.303Z,109
2018-05-31T00:17:16.856Z,113
2018-05-31T00:17:29.386Z,124
2018-05-31T00:17:41.928Z,124
2018-05-31T00:17:56.402Z,98
2018-05-31T00:18:08.931Z,36
2018-05-31T00:18:21.648Z,50
2018-05-31T00:18:34.200Z,91
2018-05-31T00:18:46.752Z,95
2018-05-31T00:19:00.075Z,96
2018-05-31T00:19:13.688Z,96
2018-05-31T00:19:26.270Z,96
2018-05-31T00:19:38.828Z,96
2018-05-31T00:19:51.345Z,63
2018-05-31T00:20:04.016Z,34
2018-05-31T00:20:18.527Z,28
2018-05-31T00:20:31.044Z,28
2018-05-31T00:20:43.558Z,31
2018-05-31T00:20:56.153Z,32
2018-05-31T00:21:08.752Z,40
2018-05-31T00:21:23.104Z,55
2018-05-31T00:21:35.628Z,55
2018-05-31T00:21:48.230Z,55
2018-05-31T00:22:00.788Z,55
2018-05-31T00:22:13.324Z,55
2018-05-31T00:22:27.873Z,54
2018-05-31T00:22:40.403Z,54
2018-05-31T00:22:52.963Z,96
2018-05-31T00:23:05.477Z,83
2018-05-31T00:23:17.998Z,126
2018-05-31T00:23:32.253Z,96
2018-05-31T00:23:45.051Z,117
2018-05-31T00:23:57.575Z,58
2018-05-31T00:24:10.170Z,5
2018-05-31T00:24:22.737Z,5
2018-05-31T00:24:35.758Z,22
2018-05-31T00:24:49.802Z,26
2018-05-31T00:25:02.402Z,42
2018-05-31T00:25:15.771Z,42
2018-05-31T00:25:28.504Z,42
2018-05-31T00:25:41.104Z,130
2018-05-31T00:25:55.401Z,87
2018-05-31T00:26:08.019Z,87
2018-05-31T00:26:20.591Z,87
2018-05-31T00:26:33.116Z,76
2018-05-31T00:26:45.637Z,61
2018-05-31T00:27:00.181Z,65
2018-05-31T00:27:12.719Z,65
2018-05-31T00:27:25.222Z,65
2018-05-31T00:27:37.759Z,62
2018-05-31T00:27:50.347Z,24
2018-05-31T00:28:04.582Z,38
2018-05-31T00:28:17.303Z,65
2018-05-31T00:28:29.831Z,65
2018-05-31T00:28:42.387Z,65
2018-05-31T00:28:54.899Z,65
2018-05-31T00:29:09.034Z,65
2018-05-31T00:29:21.938Z,65
2018-05-31T00:29:34.450Z,69
2018-05-31T00:29:47.022Z,69
2018-05-31T00:29:59.540Z,69
2018-05-31T00:30:12.718Z,69
2018-05-31T00:30:26.715Z,69
2018-05-31T00:30:39.244Z,69
2018-05-31T00:30:51.765Z,69
2018-05-31T00:31:04.302Z,69
2018-05-31T00:31:16.869Z,69
2018-05-31T00:31:31.186Z,69
2018-05-31T00:31:43.733Z,69
2018-05-31T00:31:56.262Z,88
2018-05-31T00:32:08.838Z,86
2018-05-31T00:32:21.405Z,46
2018-05-31T00:32:35.732Z,48
2018-05-31T00:32:48.259Z,58
2018-05-31T00:33:00.835Z,61
2018-05-31T00:33:13.421Z,92
2018-05-31T00:33:26.000Z,98
2018-05-31T00:33:40.107Z,98
2018-05-31T00:33:52.677Z,98
2018-05-31T00:34:05.213Z,98
2018-05-31T00:34:17.810Z,98
2018-05-31T00:34:30.346Z,98
2018-05-31T00:34:43.923Z,98
2018-05-31T00:34:57.538Z,109
2018-05-31T00:35:10.299Z,109
2018-05-31T00:35:22.829Z,78
2018-05-31T00:35:35.368Z,78
2018-05-31T00:35:47.900Z,114
2018-05-31T00:36:02.328Z,81
2018-05-31T00:36:14.853Z,81
2018-05-31T00:36:27.374Z,88
2018-05-31T00:36:39.896Z,88
2018-05-31T00:36:52.487Z,88
2018-05-31T00:37:06.935Z,88
2018-05-31T00:37:19.445Z,88
2018-05-31T00:37:31.990Z,88
2018-05-31T00:37:44.536Z,88
2018-05-31T00:37:57.061Z,88
2018-05-31T00:38:11.574Z,88
2018-05-31T00:38:24.104Z,88
2018-05-31T00:38:36.618Z,65
2018-05-31T00:38:49.134Z,65
2018-05-31T00:39:01.659Z,65
2018-05-31T00:39:16.202Z,66
2018-05-31T00:39:28.815Z,66
2018-05-31T00:39:41.340Z,66
2018-05-31T00:39:53.897Z,66
2018-05-31T00:40:06.446Z,66
2018-05-31T00:40:19.731Z,66
2018-05-31T00:40:33.202Z,67
2018-05-31T00:40:45.787Z,67
2018-05-31T00:40:58.326Z,67
2018-05-31T00:41:10.978Z,67
2018-05-31T00:41:23.557Z,67
2018-05-31T00:41:37.918Z,111
2018-05-31T00:41:50.648Z,111
2018-05-31T00:42:03.224Z,49
2018-05-31T00:42:15.785Z,46
2018-05-31T00:42:28.293Z,5
2018-05-31T00:42:42.536Z,9
2018-05-31T00:42:55.060Z,73
2018-05-31T00:43:07.605Z,77
2018-05-31T00:43:20.180Z,77
2018-05-31T00:43:32.725Z,77
2018-05-31T00:43:46.947Z,77
2018-05-31T00:43:59.453Z,61
2018-05-31T00:44:11.980Z,61
2018-05-31T00:44:24.491Z,61
2018-05-31T00:44:37.061Z,61
2018-05-31T00:44:51.293Z,61
2018-05-31T00:45:04.217Z,61
2018-05-31T00:45:16.753Z,61
2018-05-31T00:45:29.292Z,61
2018-05-31T00:45:41.856Z,61
2018-05-31T00:45:54.819Z,61
2018-05-31T00:46:08.649Z,61
2018-05-31T00:46:21.153Z,61
2018-05-31T00:46:33.681Z,61
2018-05-31T00:46:46.247Z,61
2018-05-31T00:46:58.831Z,61
2018-05-31T00:47:13.577Z,61
2018-05-31T00:47:26.132Z,61
2018-05-31T00:47:38.641Z,61
2018-05-31T00:47:51.142Z,61
2018-05-31T00:48:03.676Z,61
2018-05-31T00:48:18.026Z,61
2018-05-31T00:48:30.667Z,61
2018-05-31T00:48:43.235Z,61
2018-05-31T00:48:55.781Z,61
2018-05-31T00:49:08.321Z,63
2018-05-31T00:49:24.511Z,71
2018-05-31T00:49:37.008Z,71
2018-05-31T00:49:49.544Z,71
2018-05-31T00:50:02.077Z,71
2018-05-31T00:50:14.613Z,71
2018-05-31T00:50:29.071Z,71
2018-05-31T00:50:41.601Z,71
2018-05-31T00:50:54.123Z,113
2018-05-31T00:51:06.636Z,98
2018-05-31T00:51:19.171Z,98
2018-05-31T00:51:33.047Z,55
2018-05-31T00:51:46.298Z,55
2018-05-31T00:51:58.826Z,86
2018-05-31T00:52:11.382Z,116
2018-05-31T00:52:23.909Z,116
2018-05-31T00:52:36.587Z,116
2018-05-31T00:52:50.774Z,116
2018-05-31T00:53:03.301Z,109
2018-05-31T00:53:15.847Z,92
2018-05-31T00:53:28.383Z,92
2018-05-31T00:53:40.906Z,92
2018-05-31T00:53:55.271Z,92
2018-05-31T00:54:07.797Z,92
2018-05-31T00:54:20.300Z,92
2018-05-31T00:54:32.845Z,92
2018-05-31T00:54:45.377Z,92
2018-05-31T00:54:59.609Z,92
2018-05-31T00:55:12.216Z,92
2018-05-31T00:55:24.747Z,92
2018-05-31T00:55:37.253Z,92
2018-05-31T00:55:49.763Z,63
2018-05-31T00:56:03.316Z,67
2018-05-31T00:56:16.870Z,67
2018-05-31T00:56:29.419Z,69
2018-05-31T00:56:41.934Z,66
2018-05-31T00:56:54.478Z,54
2018-05-31T00:57:07.012Z,54
2018-05-31T00:57:21.447Z,54
2018-05-31T00:57:33.979Z,54
2018-05-31T00:57:46.519Z,54
2018-05-31T00:57:59.027Z,54
2018-05-31T00:58:11.621Z,54
2018-05-31T00:58:26.258Z,54
2018-05-31T00:58:38.774Z,54
2018-05-31T00:58:51.387Z,54
2018-05-31T00:59:03.937Z,54
2018-05-31T00:59:16.476Z,54
2018-05-31T00:59:30.535Z,54
2018-05-31T00:59:43.061Z,54
2018-05-31T00:59:55.599Z,54
2018-05-31T01:00:08.184Z,54
2018-05-31T01:00:20.716Z,55
2018-05-31T01:00:35.274Z,74
2018-05-31T01:00:47.830Z,74
2018-05-31T01:01:00.392Z,73
2018-05-31T01:01:12.951Z,73
2018-05-31T01:01:25.530Z,73
2018-05-31T01:01:38.590Z,73
2018-05-31T01:01:52.084Z,73
2018-05-31T01:02:04.658Z,73
2018-05-31T01:02:17.209Z,73
2018-05-31T01:02:29.755Z,73
2018-05-31T01:02:42.298Z,73
2018-05-31T01:02:56.630Z,73
2018-05-31T01:03:09.303Z,73
2018-05-31T01:03:21.818Z,73
2018-05-31T01:03:34.336Z,73
2018-05-31T01:03:46.861Z,73
2018-05-31T01:04:01.288Z,73
2018-05-31T01:04:13.846Z,73
2018-05-31T01:04:26.403Z,73
2018-05-31T01:04:38.961Z,73
2018-05-31T01:04:51.531Z,90
2018-05-31T01:05:06.100Z,90
2018-05-31T01:05:18.622Z,90
2018-05-31T01:05:31.169Z,90
2018-05-31T01:05:43.774Z,90
2018-05-31T01:05:56.324Z,73
2018-05-31T01:06:10.511Z,65
2018-05-31T01:06:23.473Z,65
2018-05-31T01:06:36.024Z,108
2018-05-31T01:06:48.577Z,108
2018-05-31T01:07:01.090Z,119
2018-05-31T01:07:13.835Z,119
2018-05-31T01:07:27.793Z,119
2018-05-31T01:07:40.350Z,119
2018-05-31T01:07:53.213Z,119
2018-05-31T01:08:05.757Z,119
2018-05-31T01:08:18.308Z,119
2018-05-31T01:08:32.891Z,119
2018-05-31T01:08:45.432Z,119
2018-05-31T01:08:57.933Z,98
2018-05-31T01:09:10.485Z,99
2018-05-31T01:09:23.055Z,100
2018-05-31T01:09:37.441Z,101
2018-05-31T01:09:50.000Z,101
2018-05-31T01:10:02.559Z,101
2018-05-31T01:10:15.094Z,101
2018-05-31T01:10:27.640Z,101
2018-05-31T01:10:42.171Z,101
2018-05-31T01:10:54.678Z,98
2018-05-31T01:11:07.232Z,75
2018-05-31T01:11:19.784Z,75
2018-05-31T01:11:32.319Z,75
2018-05-31T01:11:45.846Z,75
2018-05-31T01:11:59.521Z,75
2018-05-31T01:12:12.199Z,99
2018-05-31T01:12:24.764Z,99
2018-05-31T01:12:37.305Z,99
2018-05-31T01:12:50.263Z,99
2018-05-31T01:13:04.326Z,99
2018-05-31T01:13:16.871Z,66
2018-05-31T01:13:29.448Z,66
2018-05-31T01:13:42.017Z,66
2018-05-31T01:13:54.552Z,66
2018-05-31T01:14:08.922Z,66
2018-05-31T01:14:21.420Z,66
2018-05-31T01:14:33.961Z,66
2018-05-31T01:14:46.492Z,66
2018-05-31T01:14:58.998Z,66
2018-05-31T01:15:13.612Z,66
2018-05-31T01:15:26.139Z,66
2018-05-31T01:15:38.660Z,58
2018-05-31T01:15:51.183Z,60
2018-05-31T01:16:03.739Z,60
2018-05-31T01:16:18.178Z,60
2018-05-31T01:16:30.911Z,60
2018-05-31T01:16:43.501Z,60
2018-05-31T01:16:56.078Z,60
2018-05-31T01:17:08.646Z,60
2018-05-31T01:17:21.866Z,60
2018-05-31T01:17:35.288Z,57
2018-05-31T01:17:47.854Z,57
2018-05-31T01:18:00.401Z,57
2018-05-31T01:18:13.082Z,57
2018-05-31T01:18:25.646Z,57
2018-05-31T01:18:39.983Z,101
2018-05-31T01:18:52.486Z,101
2018-05-31T01:19:05.045Z,101
2018-05-31T01:19:17.553Z,101
2018-05-31T01:19:30.189Z,101
2018-05-31T01:19:44.561Z,101
2018-05-31T01:19:57.126Z,101
2018-05-31T01:20:09.698Z,101
2018-05-31T01:20:22.225Z,101
2018-05-31T01:20:34.975Z,101
2018-05-31T01:20:49.702Z,101
2018-05-31T01:21:02.272Z,101
2018-05-31T01:21:14.803Z,100
2018-05-31T01:21:27.314Z,90
2018-05-31T01:21:39.810Z,61
2018-05-31T01:21:54.392Z,58
2018-05-31T01:22:06.995Z,60
2018-05-31T01:22:19.577Z,77
2018-05-31T01:22:32.112Z,77
2018-05-31T01:22:44.655Z,77
2018-05-31T01:22:58.447Z,77
2018-05-31T01:23:11.832Z,77
2018-05-31T01:23:24.391Z,77
2018-05-31T01:23:36.927Z,77
2018-05-31T01:23:49.488Z,77
2018-05-31T01:24:02.014Z,77
2018-05-31T01:24:16.272Z,77
2018-05-31T01:24:28.803Z,77
2018-05-31T01:24:41.291Z,77
2018-05-31T01:24:53.830Z,77
2018-05-31T01:25:06.369Z,77
2018-05-31T01:25:20.938Z,77
2018-05-31T01:25:33.475Z,77
2018-05-31T01:25:46.119Z,77
2018-05-31T01:25:58.663Z,98
2018-05-31T01:26:11.217Z,98
2018-05-31T01:26:25.410Z,98
2018-05-31T01:26:37.968Z,97
2018-05-31T01:26:50.498Z,96
2018-05-31T01:27:03.033Z,95
2018-05-31T01:27:15.567Z,95
2018-05-31T01:27:29.964Z,89
2018-05-31T01:27:42.974Z,88
2018-05-31T01:27:55.500Z,79
2018-05-31T01:28:08.047Z,94
2018-05-31T01:28:20.581Z,113
2018-05-31T01:28:33.579Z,86
2018-05-31T01:28:47.394Z,75
2018-05-31T01:28:59.962Z,91
2018-05-31T01:29:12.529Z,103
2018-05-31T01:29:25.063Z,103
2018-05-31T01:29:37.584Z,94
2018-05-31T01:29:51.850Z,93
2018-05-31T01:30:04.393Z,105
2018-05-31T01:30:16.923Z,92
2018-05-31T01:30:29.472Z,56
2018-05-31T01:30:42.051Z,40
2018-05-31T01:30:56.375Z,40
2018-05-31T01:31:08.964Z,40
2018-05-31T01:31:21.538Z,40
2018-05-31T01:31:34.240Z,40
2018-05-31T01:31:46.778Z,40
2018-05-31T01:32:01.195Z,40
2018-05-31T01:32:14.361Z,78
2018-05-31T01:32:26.886Z,78
2018-05-31T01:32:39.416Z,78
2018-05-31T01:32:51.952Z,78
2018-05-31T01:33:05.639Z,78
2018-05-31T01:33:19.163Z,78
2018-05-31T01:33:31.707Z,78
2018-05-31T01:33:44.222Z,85
2018-05-31T01:33:56.772Z,113
2018-05-31T01:34:09.308Z,54
2018-05-31T01:34:23.474Z,54
2018-05-31T01:34:35.963Z,54
2018-05-31T01:34:48.494Z,62
2018-05-31T01:35:01.037Z,60
2018-05-31T01:35:13.700Z,59
2018-05-31T01:35:28.176Z,51
2018-05-31T01:35:40.718Z,51
2018-05-31T01:35:53.249Z,51
2018-05-31T01:36:05.794Z,51
2018-05-31T01:36:18.336Z,30
2018-05-31T01:36:32.252Z,29
2018-05-31T01:36:44.806Z,53
2018-05-31T01:36:57.347Z,53
2018-05-31T01:37:09.871Z,53
2018-05-31T01:37:22.436Z,53
2018-05-31T01:37:36.420Z,103
2018-05-31T01:37:49.670Z,82
2018-05-31T01:38:02.197Z,48
2018-05-31T01:38:14.721Z,59
2018-05-31T01:38:27.240Z,32
2018-05-31T01:38:39.786Z,55
2018-05-31T01:38:53.950Z,76
2018-05-31T01:39:06.453Z,70
2018-05-31T01:39:18.974Z,69
2018-05-31T01:39:31.497Z,69
2018-05-31T01:39:44.041Z,70
2018-05-31T01:39:58.461Z,70
2018-05-31T01:40:11.043Z,70
2018-05-31T01:40:23.646Z,70
2018-05-31T01:40:36.141Z,61
2018-05-31T01:40:48.724Z,92
2018-05-31T01:41:03.022Z,33
2018-05-31T01:41:15.526Z,33
2018-05-31T01:41:28.101Z,66
2018-05-31T01:41:40.655Z,52
2018-05-31T01:41:53.205Z,52
2018-05-31T01:42:07.777Z,53
2018-05-31T01:42:20.287Z,53
2018-05-31T01:42:32.796Z,107
2018-05-31T01:42:45.327Z,155
2018-05-31T01:42:57.865Z,155
2018-05-31T01:43:10.732Z,155
2018-05-31T01:43:24.664Z,155
2018-05-31T01:43:37.227Z,155
2018-05-31T01:43:49.793Z,155
2018-05-31T01:44:02.321Z,121
2018-05-31T01:44:14.862Z,105
2018-05-31T01:44:28.788Z,78
2018-05-31T01:44:41.328Z,63
2018-05-31T01:44:53.882Z,88
2018-05-31T01:45:06.416Z,88
2018-05-31T01:45:18.939Z,88
2018-05-31T01:45:33.483Z,91
2018-05-31T01:45:46.079Z,91
2018-05-31T01:45:58.632Z,91
2018-05-31T01:46:11.295Z,91
2018-05-31T01:46:23.812Z,91
2018-05-31T01:46:37.825Z,91
2018-05-31T01:46:50.388Z,91
2018-05-31T01:47:02.939Z,91
2018-05-31T01:47:15.522Z,91
2018-05-31T01:47:28.038Z,91
2018-05-31T01:47:41.607Z,92
2018-05-31T01:47:55.005Z,92
2018-05-31T01:48:07.528Z,98
2018-05-31T01:48:20.053Z,98
2018-05-31T01:48:32.748Z,98
2018-05-31T01:48:45.301Z,98
2018-05-31T01:48:59.398Z,99
2018-05-31T01:49:11.924Z,99
2018-05-31T01:49:24.465Z,99
2018-05-31T01:49:36.985Z,99
2018-05-31T01:49:49.513Z,99
2018-05-31T01:50:03.891Z,99
2018-05-31T01:50:16.411Z,99
2018-05-31T01:50:28.956Z,99
2018-05-31T01:50:41.497Z,99
2018-05-31T01:50:54.032Z,99
2018-05-31T01:51:08.091Z,99
2018-05-31T01:51:20.624Z,99
2018-05-31T01:51:33.166Z,99
2018-05-31T01:51:45.693Z,99
2018-05-31T01:51:58.231Z,99
2018-05-31T01:52:12.524Z,98
2018-05-31T01:52:25.444Z,81
2018-05-31T01:52:38.150Z,82
2018-05-31T01:52:50.714Z,82
2018-05-31T01:53:03.245Z,82
2018-05-31T01:53:16.209Z,82
2018-05-31T01:53:30.310Z,82
2018-05-31T01:53:42.832Z,82
2018-05-31T01:53:55.352Z,82
2018-05-31T01:54:07.882Z,82
2018-05-31T01:54:20.399Z,82
2018-05-31T01:54:34.823Z,82
2018-05-31T01:54:47.492Z,82
2018-05-31T01:55:00.016Z,82
2018-05-31T01:55:12.557Z,82
2018-05-31T01:55:25.093Z,82
2018-05-31T01:55:39.681Z,82
2018-05-31T01:55:52.243Z,82
2018-05-31T01:56:04.781Z,82
2018-05-31T01:56:17.272Z,82
2018-05-31T01:56:29.811Z,109
2018-05-31T01:56:44.141Z,109
2018-05-31T01:56:56.658Z,109
2018-05-31T01:57:09.204Z,105
2018-05-31T01:57:21.717Z,105
2018-05-31T01:57:34.314Z,105
2018-05-31T01:57:48.204Z,105
2018-05-31T01:58:01.343Z,105
2018-05-31T01:58:14.050Z,105
2018-05-31T01:58:26.605Z,105
2018-05-31T01:58:39.160Z,105
2018-05-31T01:58:51.689Z,82
2018-05-31T01:59:05.837Z,77
2018-05-31T01:59:18.347Z,77
2018-05-31T01:59:30.880Z,77
2018-05-31T01:59:43.418Z,77
2018-05-31T01:59:55.913Z,77
2018-05-31T02:00:10.730Z,77
2018-05-31T02:00:23.259Z,77
2018-05-31T02:00:35.803Z,77
2018-05-31T02:00:48.397Z,77
2018-05-31T02:01:01.006Z,77
2018-05-31T02:01:15.181Z,77
2018-05-31T02:01:27.710Z,77
2018-05-31T02:01:40.280Z,77
2018-05-31T02:01:52.835Z,77
2018-05-31T02:02:05.389Z,77
2018-05-31T02:02:19.685Z,77
2018-05-31T02:02:32.310Z,77
2018-05-31T02:02:44.856Z,77
2018-05-31T02:02:57.414Z,77
2018-05-31T02:03:09.954Z,77
2018-05-31T02:03:22.836Z,77
2018-05-31T02:03:36.563Z,77
2018-05-31T02:03:49.096Z,77
2018-05-31T02:04:01.635Z,77
2018-05-31T02:04:14.175Z,77
2018-05-31T02:04:26.765Z,77
2018-05-31T02:04:41.367Z,77
2018-05-31T02:04:53.911Z,77
2018-05-31T02:05:06.423Z,77
2018-05-31T02:05:19.137Z,77
2018-05-31T02:05:31.727Z,77
2018-05-31T02:05:46.026Z,77
2018-05-31T02:05:58.705Z,77
2018-05-31T02:06:11.287Z,77
2018-05-31T02:06:23.835Z,77
2018-05-31T02:06:36.353Z,77
2018-05-31T02:06:50.811Z,77
2018-05-31T02:07:03.365Z,77
2018-05-31T02:07:15.945Z,77
2018-05-31T02:07:28.473Z,77
2018-05-31T02:07:40.997Z,77
2018-05-31T02:07:55.885Z,77
2018-05-31T02:08:08.779Z,77
2018-05-31T02:08:21.358Z,77
2018-05-31T02:08:33.922Z,77
2018-05-31T02:08:46.455Z,77
2018-05-31T02:08:59.665Z,77
2018-05-31T02:09:13.597Z,77
2018-05-31T02:09:26.159Z,77
2018-05-31T02:09:38.690Z,77
2018-05-31T02:09:51.232Z,77
2018-05-31T02:10:03.776Z,77
2018-05-31T02:10:18.219Z,77
2018-05-31T02:10:30.889Z,77
2018-05-31T02:10:43.442Z,77
2018-05-31T02:10:56.017Z,77
2018-05-31T02:11:08.563Z,77
2018-05-31T02:11:22.734Z,77
2018-05-31T02:11:35.246Z,77
2018-05-31T02:11:47.787Z,77
2018-05-31T02:12:00.319Z,77
2018-05-31T02:12:12.829Z,77
2018-05-31T02:12:27.517Z,77
2018-05-31T02:12:40.099Z,77
2018-05-31T02:12:52.661Z,77
2018-05-31T02:13:05.192Z,77
2018-05-31T02:13:17.715Z,77
2018-05-31T02:13:31.194Z,77
2018-05-31T02:13:44.365Z,77
2018-05-31T02:13:56.896Z,77
2018-05-31T02:14:09.496Z,77
2018-05-31T02:14:22.021Z,77
2018-05-31T02:14:34.573Z,77
2018-05-31T02:14:49.267Z,77
2018-05-31T02:15:01.878Z,77
2018-05-31T02:15:14.423Z,77
2018-05-31T02:15:26.958Z,77
2018-05-31T02:15:39.608Z,77
2018-05-31T02:15:53.813Z,77
2018-05-31T02:16:06.366Z,77
2018-05-31T02:16:18.883Z,77
2018-05-31T02:16:31.419Z,77
2018-05-31T02:16:44.018Z,77
2018-05-31T02:16:58.408Z,77
2018-05-31T02:17:10.960Z,77
2018-05-31T02:17:23.473Z,77
2018-05-31T02:17:36.011Z,77
2018-05-31T02:17:48.582Z,77
2018-05-31T02:18:02.797Z,77
2018-05-31T02:18:15.623Z,77
2018-05-31T02:18:28.186Z,77
2018-05-31T02:18:40.721Z,77
2018-05-31T02:18:53.297Z,77
2018-05-31T02:19:06.468Z,77
2018-05-31T02:19:20.396Z,77
2018-05-31T02:19:32.932Z,77
2018-05-31T02:19:45.478Z,77
2018-05-31T02:19:58.032Z,77
2018-05-31T02:20:10.581Z,77
2018-05-31T02:20:25.116Z,77
2018-05-31T02:20:37.731Z,77
2018-05-31T02:20:50.257Z,77
2018-05-31T02:21:02.783Z,77
2018-05-31T02:21:15.520Z,77
2018-05-31T02:21:29.720Z,77
2018-05-31T02:21:42.212Z,77
2018-05-31T02:21:54.763Z,77
2018-05-31T02:22:07.317Z,77
2018-05-31T02:22:19.853Z,77
2018-05-31T02:22:34.383Z,77
2018-05-31T02:22:46.957Z,77
2018-05-31T02:22:59.527Z,77
2018-05-31T02:23:12.064Z,77
2018-05-31T02:23:24.578Z,77
2018-05-31T02:23:38.819Z,77
2018-05-31T02:23:51.675Z,77
2018-05-31T02:24:04.191Z,77
2018-05-31T02:24:16.746Z,77
2018-05-31T02:24:29.282Z,77
2018-05-31T02:24:42.330Z,77
2018-05-31T02:24:56.308Z,77
2018-05-31T02:25:08.829Z,77
2018-05-31T02:25:21.366Z,77
2018-05-31T02:25:33.868Z,77
2018-05-31T02:25:46.451Z,77
2018-05-31T02:26:00.791Z,77
2018-05-31T02:26:13.472Z,77
2018-05-31T02:26:26.007Z,77
2018-05-31T02:26:38.532Z,77
2018-05-31T02:26:51.081Z,77
2018-05-31T02:27:05.635Z,77
2018-05-31T02:27:18.143Z,77
2018-05-31T02:27:30.668Z,77
2018-05-31T02:27:43.226Z,77
2018-05-31T02:27:55.760Z,77
2018-05-31T02:28:10.243Z,77
2018-05-31T02:28:22.827Z,77
2018-05-31T02:28:35.422Z,77
2018-05-31T02:28:47.962Z,77
2018-05-31T02:29:00.480Z,77
2018-05-31T02:29:13.820Z,77
2018-05-31T02:29:27.426Z,77
2018-05-31T02:29:39.991Z,77
2018-05-31T02:29:52.536Z,130
2018-05-31T02:30:05.101Z,137
2018-05-31T02:30:17.666Z,137
2018-05-31T02:30:32.281Z,137
2018-05-31T02:30:44.937Z,137
2018-05-31T02:30:57.617Z,137
2018-05-31T02:31:10.288Z,137
2018-05-31T02:31:22.991Z,137
2018-05-31T02:31:37.740Z,137
2018-05-31T02:31:50.264Z,137
2018-05-31T02:32:02.761Z,137
2018-05-31T02:32:15.268Z,137
2018-05-31T02:32:27.794Z,137
2018-05-31T02:32:42.287Z,137
2018-05-31T02:32:54.846Z,137
2018-05-31T02:33:07.379Z,137
2018-05-31T02:33:19.921Z,137
2018-05-31T02:33:32.417Z,137
2018-05-31T02:33:46.282Z,137
2018-05-31T02:33:59.243Z,137
2018-05-31T02:34:11.803Z,137
2018-05-31T02:34:24.336Z,137
2018-05-31T02:34:36.889Z,137
2018-05-31T02:34:49.406Z,137
2018-05-31T02:35:03.907Z,137
2018-05-31T02:35:16.446Z,137
2018-05-31T02:35:28.973Z,137
2018-05-31T02:35:41.501Z,137
2018-05-31T02:35:53.998Z,137
2018-05-31T02:36:08.272Z,137
2018-05-31T02:36:20.809Z,137
2018-05-31T02:36:33.368Z,137
2018-05-31T02:36:45.911Z,137
2018-05-31T02:36:58.454Z,137
2018-05-31T02:37:13.166Z,137
2018-05-31T02:37:25.871Z,137
2018-05-31T02:37:38.434Z,137
2018-05-31T02:37:50.947Z,137
2018-05-31T02:38:03.486Z,137
2018-05-31T02:38:17.547Z,137
2018-05-31T02:38:30.100Z,137
2018-05-31T02:38:42.633Z,137
2018-05-31T02:38:55.177Z,137
2018-05-31T02:39:07.707Z,137
2018-05-31T02:39:20.612Z,137
2018-05-31T02:39:34.415Z,137
2018-05-31T02:39:47.018Z,137
2018-05-31T02:39:59.537Z,137
2018-05-31T02:40:12.064Z,137
2018-05-31T02:40:24.597Z,137
2018-05-31T02:40:39.155Z,137
2018-05-31T02:40:51.722Z,137
2018-05-31T02:41:04.589Z,137
2018-05-31T02:41:17.121Z,137
2018-05-31T02:41:29.691Z,137
2018-05-31T02:41:44.257Z,137
2018-05-31T02:41:56.779Z,137
2018-05-31T02:42:09.302Z,144
2018-05-31T02:42:21.812Z,144
2018-05-31T02:42:34.369Z,137
2018-05-31T02:42:48.633Z,134
2018-05-31T02:43:01.149Z,134
2018-05-31T02:43:13.704Z,134
2018-05-31T02:43:26.248Z,134
2018-05-31T02:43:38.834Z,134
2018-05-31T02:43:52.852Z,134
2018-05-31T02:44:05.750Z,134
2018-05-31T02:44:18.257Z,134
2018-05-31T02:44:30.807Z,134
2018-05-31T02:44:43.314Z,134
2018-05-31T02:44:55.838Z,134
2018-05-31T02:45:10.199Z,123
2018-05-31T02:45:22.742Z,135
2018-05-31T02:45:35.281Z,135
2018-05-31T02:45:47.826Z,135
2018-05-31T02:46:00.393Z,135
2018-05-31T02:46:14.785Z,135
2018-05-31T02:46:27.286Z,135
2018-05-31T02:46:39.895Z,134
2018-05-31T02:46:52.390Z,134
2018-05-31T02:47:04.942Z,134
2018-05-31T02:47:19.389Z,134
2018-05-31T02:47:31.943Z,134
2018-05-31T02:47:44.449Z,134
2018-05-31T02:47:56.990Z,134
2018-05-31T02:48:09.511Z,135
2018-05-31T02:48:23.839Z,135
2018-05-31T02:48:36.413Z,134
2018-05-31T02:48:48.988Z,130
2018-05-31T02:49:01.545Z,127
2018-05-31T02:49:14.193Z,127
2018-05-31T02:49:27.909Z,127
2018-05-31T02:49:41.528Z,127
2018-05-31T02:49:54.059Z,127
2018-05-31T02:50:06.615Z,127
2018-05-31T02:50:19.169Z,127
2018-05-31T02:50:31.712Z,127
2018-05-31T02:50:45.992Z,127
2018-05-31T02:50:58.532Z,127
2018-05-31T02:51:11.109Z,127
2018-05-31T02:51:23.630Z,127
2018-05-31T02:51:36.176Z,127
2018-05-31T02:51:50.789Z,127
2018-05-31T02:52:03.328Z,127
2018-05-31T02:52:15.851Z,127
2018-05-31T02:52:28.394Z,127
2018-05-31T02:52:41.060Z,127
2018-05-31T02:52:55.229Z,130
2018-05-31T02:53:07.761Z,130
2018-05-31T02:53:20.296Z,130
2018-05-31T02:53:32.895Z,130
2018-05-31T02:53:45.405Z,130
2018-05-31T02:53:59.526Z,130
2018-05-31T02:54:12.416Z,103
2018-05-31T02:54:24.950Z,103
2018-05-31T02:54:37.539Z,103
2018-05-31T02:54:50.079Z,103
2018-05-31T02:55:02.638Z,104
2018-05-31T02:55:16.926Z,104
2018-05-31T02:55:29.435Z,99
2018-05-31T02:55:41.988Z,42
2018-05-31T02:55:54.507Z,42
2018-05-31T02:56:07.051Z,42
2018-05-31T02:56:21.778Z,46
2018-05-31T02:56:34.332Z,47
2018-05-31T02:56:46.848Z,46
2018-05-31T02:56:59.474Z,47
2018-05-31T02:57:12.027Z,47
2018-05-31T02:57:26.209Z,46
2018-05-31T02:57:38.770Z,46
2018-05-31T02:57:51.285Z,46
2018-05-31T02:58:03.837Z,61
2018-05-31T02:58:16.577Z,63
2018-05-31T02:58:31.170Z,63
2018-05-31T02:58:43.690Z,63
2018-05-31T02:58:56.215Z,63
2018-05-31T02:59:08.745Z,63
2018-05-31T02:59:21.291Z,63
2018-05-31T02:59:34.914Z,63
2018-05-31T02:59:48.359Z,63
2018-05-31T03:00:00.968Z,94
2018-05-31T03:00:13.552Z,121
2018-05-31T03:00:26.130Z,111
2018-05-31T03:00:38.671Z,106
2018-05-31T03:00:52.874Z,106
2018-05-31T03:01:05.437Z,106
2018-05-31T03:01:18.041Z,106
2018-05-31T03:01:30.623Z,106
2018-05-31T03:01:43.186Z,106
2018-05-31T03:01:57.523Z,106
2018-05-31T03:02:10.078Z,106
2018-05-31T03:02:22.649Z,106